Time;durP1;ratioP1;P1;durP2;ratioP2;P2;SDS_P1;SDS_P2;PMS_P1;PMS_P2;Temp;Humidity;BMP_temperature;BMP_pressure;BME280_temperature;BME280_humidity;BME280_pressure;Samples;Min_cycle;Max_cycle;Signal;HPM_P1;HPM_P2
2023/06/09 00:02:09;;;;;;;16.15;5.18;;;;;;;;;;4989410;28;20077;-83
2023/06/09 00:04:36;;;;;;;15.48;5.55;;;;;;;;;;4991259;28;20535;-83
2023/06/09 00:07:03;;;;;;;13.43;5.25;;;;;;;;;;5005204;28;20046;-83
2023/06/09 00:09:31;;;;;;;15.68;5.22;;;;;;;;;;5007885;28;20128;-83
2023/06/09 00:11:57;;;;;;;12.93;5.00;;;;;;;;;;4996871;28;20053;-83
2023/06/09 00:14:24;;;;;;;13.55;5.82;;;;;;;;;;4988202;28;20045;-83
2023/06/09 00:16:51;;;;;;;14.93;6.15;;;;;;;;;;4973730;28;20073;-83
2023/06/09 00:19:17;;;;;;;17.83;5.40;;;;;;;;;;4987188;28;20050;-83
2023/06/09 00:21:49;;;;;;;12.45;5.60;;;;;;;;;;4985840;28;20081;-83
2023/06/09 00:24:15;;;;;;;13.40;5.63;;;;;;;;;;4971962;28;20113;-83
2023/06/09 00:26:41;;;;;;;14.85;4.82;;;;;;;;;;5006724;28;20420;-83
2023/06/09 00:29:07;;;;;;;16.35;4.85;;;;;;;;;;4983762;28;20050;-83
2023/06/09 00:31:33;;;;;;;17.05;5.35;;;;;;;;;;4984384;28;20061;-83
2023/06/09 00:33:59;;;;;;;19.67;6.05;;;;;;;;;;4981009;28;20038;-83
2023/06/09 00:36:25;;;;;;;14.65;5.32;;;;;;;;;;4979981;28;20133;-83
2023/06/09 00:38:51;;;;;;;13.25;5.55;;;;;;;;;;4981526;28;20483;-83
2023/06/09 00:41:17;;;;;;;14.32;4.50;;;;;;;;;;4965773;28;20042;-83
2023/06/09 00:43:50;;;;;;;16.85;5.65;;;;;;;;;;4985666;28;20128;-83
2023/06/09 00:46:16;;;;;;;11.73;5.38;;;;;;;;;;4982456;28;20054;-83
2023/06/09 00:48:42;;;;;;;11.95;5.18;;;;;;;;;;4983487;28;20053;-83
2023/06/09 00:51:09;;;;;;;17.00;5.45;;;;;;;;;;4987103;28;20049;-83
2023/06/09 00:53:35;;;;;;;17.00;6.20;;;;;;;;;;4979143;28;20058;-83
2023/06/09 00:56:01;;;;;;;15.73;4.97;;;;;;;;;;4984725;28;20062;-83
2023/06/09 00:58:27;;;;;;;15.95;5.15;;;;;;;;;;4981282;28;20131;-83
2023/06/09 01:00:57;;;;;;;15.18;5.43;;;;;;;;;;4983279;28;20692;-83
2023/06/09 01:03:24;;;;;;;14.80;5.45;;;;;;;;;;4976190;28;20054;-83
2023/06/09 01:05:55;;;;;;;16.52;5.18;;;;;;;;;;4982158;28;20081;-83
2023/06/09 01:08:22;;;;;;;11.70;4.78;;;;;;;;;;4980876;28;20049;-83
2023/06/09 01:11:00;;;;;;;15.55;5.13;;;;;;;;;;4969547;28;20397;-83
2023/06/09 01:13:32;;;;;;;14.38;5.68;;;;;;;;;;4979153;28;20393;-83
2023/06/09 01:16:02;;;;;;;14.88;5.38;;;;;;;;;;4981802;28;20042;-83
2023/06/09 01:18:30;;;;;;;15.13;6.45;;;;;;;;;;4984840;28;20046;-83
2023/06/09 01:21:24;;;;;;;14.88;5.55;;;13.10;99.90;;;;;;4980452;28;20061;-83
2023/06/09 01:23:59;;;;;;;13.10;4.80;;;;;;;;;;4984202;28;20515;-83
2023/06/09 01:26:25;;;;;;;;;;;13.00;99.90;;;;;;4983381;28;20045;-83
2023/06/09 01:28:52;;;;;;;12.15;5.05;;;;;;;;;;4984043;28;19917;-84
2023/06/09 01:31:18;;;;;;;18.10;5.35;;;;;;;;;;4968579;28;20105;-83
2023/06/09 01:33:45;;;;;;;13.95;4.75;;;;;;;;;;4982941;28;20047;-83
2023/06/09 01:36:11;;;;;;;17.48;5.35;;;;;;;;;;4988362;28;20047;-83
2023/06/09 01:38:38;;;;;;;13.38;5.00;;;13.00;99.90;;;;;;4986908;28;20050;-83
2023/06/09 01:41:04;;;;;;;10.63;5.13;;;;;;;;;;4969074;28;20034;-83
2023/06/09 01:43:30;;;;;;;14.00;5.35;;;;;;;;;;4989136;28;20100;-83
2023/06/09 01:45:56;;;;;;;15.13;5.80;;;;;;;;;;4987611;28;20038;-83
2023/06/09 01:48:22;;;;;;;11.80;5.03;;;;;;;;;;4981367;28;20042;-83
2023/06/09 01:51:03;;;;;;;15.90;5.30;;;;;;;;;;4972235;28;20550;-83
2023/06/09 01:53:32;;;;;;;14.30;6.32;;;12.90;99.90;;;;;;4968793;28;20070;-83
2023/06/09 01:56:18;;;;;;;15.00;4.97;;;;;;;;;;4987652;28;20117;-83
2023/06/09 01:58:48;;;;;;;18.27;6.93;;;12.90;99.90;;;;;;4989421;28;20070;-83
2023/06/09 02:01:16;;;;;;;14.52;6.10;;;;;;;;;;4989969;28;20048;-83
2023/06/09 02:03:44;;;;;;;16.65;5.72;;;13.00;99.90;;;;;;4972623;28;20442;-83
2023/06/09 02:06:14;;;;;;;11.82;5.88;;;;;;;;;;4985069;28;20046;-83
2023/06/09 02:08:40;;;;;;;13.90;4.93;;;;;;;;;;4986055;28;20540;-83
2023/06/09 02:11:06;;;;;;;15.60;6.38;;;;;;;;;;4972938;28;20050;-83
2023/06/09 02:13:32;;;;;;;13.45;5.30;;;;;;;;;;4988770;28;20050;-83
2023/06/09 02:15:58;;;;;;;10.55;4.53;;;;;;;;;;4986492;28;20038;-83
2023/06/09 02:18:25;;;;;;;15.18;5.90;;;;;;;;;;4987127;28;20584;-83
2023/06/09 02:20:51;;;;;;;16.30;5.47;;;;;;;;;;4988089;28;20088;-83
2023/06/09 02:23:22;;;;;;;13.90;5.85;;;;;;;;;;4988361;28;20061;-83
2023/06/09 02:25:48;;;;;;;18.33;5.70;;;;;;;;;;4984203;28;20571;-84
2023/06/09 02:28:16;;;;;;;15.05;5.78;;;;;;;;;;4986270;28;20450;-83
2023/06/09 02:30:42;;;;;;;15.48;5.90;;;;;;;;;;4986270;28;20038;-83
2023/06/09 02:33:10;;;;;;;13.68;6.03;;;;;;;;;;4970530;28;20464;-83
2023/06/09 02:35:36;;;;;;;14.93;6.75;;;;;;;;;;4988945;28;20054;-83
2023/06/09 02:38:06;;;;;;;11.80;5.43;;;;;;;;;;4983051;28;20061;-83
2023/06/09 02:40:32;;;;;;;13.50;5.50;;;;;;;;;;4975566;28;20042;-83
2023/06/09 02:42:58;;;;;;;16.95;5.75;;;;;;;;;;4981950;28;20054;-83
2023/06/09 02:45:25;;;;;;;21.65;5.95;;;;;;;;;;4975230;28;20062;-83
2023/06/09 02:47:51;;;;;;;14.98;5.57;;;;;;;;;;4984962;28;20088;-83
2023/06/09 02:50:17;;;;;;;13.85;6.22;;;;;;;;;;4990634;28;20061;-83
2023/06/09 02:52:44;;;;;;;13.55;6.07;;;;;;;;;;4976234;28;20116;-83
2023/06/09 02:55:11;;;;;;;20.42;6.28;;;;;;;;;;5006788;28;20056;-83
2023/06/09 02:57:37;;;;;;;11.95;5.88;;;;;;;;;;4989845;28;20138;-83
2023/06/09 03:00:04;;;;;;;11.85;5.43;;;;;;;;;;4988600;28;20039;-83
2023/06/09 03:02:30;;;;;;;15.75;5.60;;;;;;;;;;4972664;28;20496;-83
2023/06/09 03:04:56;;;;;;;12.85;5.53;;;;;;;;;;5002682;28;20045;-83
2023/06/09 03:07:23;;;;;;;12.30;6.07;;;;;;;;;;4976062;28;20038;-83
2023/06/09 03:09:49;;;;;;;17.30;6.68;;;;;;;;;;4992170;28;20498;-83
2023/06/09 03:12:15;;;;;;;19.40;6.13;;;;;;;;;;4970206;28;20530;-83
2023/06/09 03:14:41;;;;;;;10.80;5.95;;;;;;;;;;4987585;28;20394;-84
2023/06/09 03:17:07;;;;;;;15.63;6.65;;;;;;;;;;4989817;28;20085;-83
2023/06/09 03:19:33;;;;;;;15.65;6.38;;;;;;;;;;4988526;28;20045;-83
2023/06/09 03:21:59;;;;;;;13.75;6.53;;;;;;;;;;4966961;28;20042;-83
2023/06/09 03:24:25;;;;;;;15.85;5.78;;;;;;;;;;4987063;28;20038;-83
2023/06/09 03:26:55;;;;;;;14.80;5.80;;;;;;;;;;5008075;28;20430;-83
2023/06/09 03:29:22;;;;;;;20.20;6.03;;;;;;;;;;4985197;28;20061;-83
2023/06/09 03:31:48;;;;;;;12.77;5.70;;;;;;;;;;5007812;28;20049;-83
2023/06/09 03:34:14;;;;;;;17.67;5.75;;;;;;;;;;4985431;28;20034;-83
2023/06/09 03:36:40;;;;;;;13.73;6.25;;;;;;;;;;4992167;28;20157;-83
2023/06/09 03:39:07;;;;;;;21.17;6.88;;;;;;;;;;4989857;28;20129;-83
2023/06/09 03:41:33;;;;;;;23.45;7.47;;;;;;;;;;5007581;28;20030;-83
2023/06/09 03:43:59;;;;;;;15.40;5.55;;;;;;;;;;4973961;28;20124;-83
2023/06/09 03:46:26;;;;;;;16.67;6.78;;;;;;;;;;4988463;28;20042;-83
2023/06/09 03:48:52;;;;;;;12.40;6.07;;;;;;;;;;5004670;28;20049;-83
2023/06/09 03:51:20;;;;;;;18.35;7.00;;;;;;;;;;4984583;28;20048;-83
2023/06/09 03:53:46;;;;;;;21.73;7.00;;;;;;;;;;4982371;28;20050;-83
2023/06/09 03:56:12;;;;;;;12.20;5.95;;;;;;;;;;4996130;28;20092;-83
2023/06/09 03:58:38;;;;;;;19.40;6.35;;;;;;;;;;4990416;28;20128;-83
2023/06/09 04:01:04;;;;;;;13.80;6.20;;;;;;;;;;4980281;28;20113;-83
2023/06/09 04:03:30;;;;;;;15.07;6.78;;;;;;;;;;4987790;28;20046;-83
2023/06/09 04:05:56;;;;;;;15.88;7.78;;;;;;;;;;4986075;28;20128;-83
2023/06/09 04:08:22;;;;;;;16.33;6.60;;;;;;;;;;4985773;28;20077;-83
2023/06/09 04:10:48;;;;;;;14.40;6.35;;;;;;;;;;5006893;28;20472;-83
2023/06/09 04:13:14;;;;;;;17.80;6.50;;;;;;;;;;4984610;28;20459;-83
2023/06/09 04:15:40;;;;;;;21.08;7.65;;;;;;;;;;4987253;28;20080;-83
2023/06/09 04:18:06;;;;;;;15.18;5.93;;;;;;;;;;4972686;28;21047;-83
2023/06/09 04:20:34;;;;;;;16.50;6.35;;;;;;;;;;4983999;28;20515;-83
2023/06/09 04:23:01;;;;;;;13.18;6.32;;;;;;;;;;4969575;28;20519;-83
2023/06/09 04:25:27;;;;;;;17.85;7.00;;;;;;;;;;4992044;28;20042;-83
2023/06/09 04:27:53;;;;;;;13.85;6.47;;;;;;;;;;4980527;28;20042;-83
2023/06/09 04:30:25;;;;;;;18.90;6.20;;;;;;;;;;4987841;28;20076;-83
2023/06/09 04:32:52;;;;;;;15.00;6.85;;;;;;;;;;4985670;28;20049;-83
2023/06/09 04:35:19;;;;;;;17.02;6.38;;;;;;;;;;4990358;28;20061;-83
2023/06/09 04:37:46;;;;;;;17.38;7.38;;;;;;;;;;4998553;28;20078;-83
2023/06/09 04:40:14;;;;;;;18.00;6.25;;;;;;;;;;4985002;28;20128;-82
2023/06/09 04:42:40;;;;;;;20.95;7.43;;;;;;;;;;4972204;28;20046;-82
2023/06/09 04:45:07;;;;;;;18.48;6.65;;;;;;;;;;4974624;28;20109;-84
2023/06/09 04:47:34;;;;;;;16.98;7.82;;;;;;;;;;4987539;28;20061;-84
2023/06/09 04:50:03;;;;;;;22.77;6.85;;;;;;;;;;4986665;28;20046;-84
2023/06/09 04:52:30;;;;;;;12.48;5.82;;;;;;;;;;5000058;28;20183;-84
2023/06/09 04:54:57;;;;;;;13.60;5.88;;;;;;;;;;4969491;28;20077;-83
2023/06/09 04:57:23;;;;;;;16.13;6.38;;;;;;;;;;5009249;28;20046;-84
2023/06/09 04:59:53;;;;;;;14.30;5.78;;;;;;;;;;5003194;28;20758;-83
2023/06/09 05:02:19;;;;;;;22.80;8.02;;;;;;;;;;4982297;28;20056;-83
2023/06/09 05:04:45;;;;;;;17.52;6.80;;;;;;;;;;4974350;28;20141;-84
2023/06/09 05:07:11;;;;;;;13.55;6.90;;;;;;;;;;4987827;28;20050;-84
2023/06/09 05:09:37;;;;;;;16.80;5.82;;;;;;;;;;4986071;28;20507;-84
2023/06/09 05:12:03;;;;;;;14.85;6.90;;;;;;;;;;4989570;28;20126;-84
2023/06/09 05:14:29;;;;;;;20.60;6.47;;;;;;;;;;4973557;28;20128;-84
2023/06/09 05:16:55;;;;;;;11.13;5.47;;;;;;;;;;4968233;28;20102;-84
2023/06/09 05:19:21;;;;;;;12.93;5.47;;;;;;;;;;4973953;28;20050;-84
2023/06/09 05:21:47;;;;;;;13.50;4.95;;;;;;;;;;4984159;28;20054;-84
2023/06/09 05:24:13;;;;;;;10.63;5.45;;;;;;;;;;4989629;28;20054;-84
2023/06/09 05:26:40;;;;;;;15.93;5.00;;;;;;;;;;4973750;28;20436;-85
2023/06/09 05:29:06;;;;;;;16.27;5.80;;;;;;;;;;5006742;28;20050;-83
2023/06/09 05:31:32;;;;;;;17.88;5.32;;;;;;;;;;4992779;28;20573;-84
2023/06/09 05:33:58;;;;;;;16.38;6.15;;;;;;;;;;4995099;28;20057;-85
2023/06/09 05:36:24;;;;;;;16.25;5.47;;;;;;;;;;4990988;28;20370;-85
2023/06/09 05:38:50;;;;;;;15.32;6.40;;;;;;;;;;4990817;28;20082;-84
2023/06/09 05:41:16;;;;;;;12.20;5.97;;;;;;;;;;4992598;28;20666;-84
2023/06/09 05:43:42;;;;;;;12.57;5.53;;;;;;;;;;4998694;28;20061;-84
2023/06/09 05:46:08;;;;;;;14.82;5.15;;;;;;;;;;4983214;28;20076;-84
2023/06/09 05:48:35;;;;;;;15.13;4.97;;;;;;;;;;4998335;28;20050;-86
2023/06/09 05:51:01;;;;;;;13.30;5.53;;;;;;;;;;4977919;28;20056;-87
2023/06/09 05:53:27;;;;;;;12.15;5.80;;;;;;;;;;4976090;28;20054;-85
2023/06/09 05:55:54;;;;;;;15.40;5.10;;;;;;;;;;4969804;28;20038;-85
2023/06/09 05:58:20;;;;;;;11.95;4.78;;;;;;;;;;4986366;28;20054;-86
2023/06/09 06:00:46;;;;;;;11.32;4.60;;;19.20;99.90;;;;;;4992291;28;20037;-85
2023/06/09 06:03:12;;;;;;;11.80;4.80;;;;;;;;;;5005887;28;20046;-85
2023/06/09 06:05:38;;;;;;;13.50;4.93;;;20.10;99.90;;;;;;4993617;28;20042;-85
2023/06/09 06:08:06;;;;;;;10.80;4.65;;;;;;;;;;4990045;28;20514;-85
2023/06/09 06:10:32;;;;;;;15.70;5.28;;;;;;;;;;4968919;28;20046;-87
2023/06/09 06:13:03;;;;;;;9.15;4.47;;;;;;;;;;4996899;28;20049;-87
2023/06/09 06:15:29;;;;;;;12.15;5.25;;;;;;;;;;4975670;28;20038;-86
2023/06/09 06:17:55;;;;;;;15.95;4.80;;;;;;;;;;4992449;28;20326;-85
2023/06/09 06:20:21;;;;;;;11.80;4.82;;;20.40;99.90;;;;;;4988262;28;20045;-86
2023/06/09 06:22:46;;;;;;;13.25;5.13;;;20.60;99.90;;;;;;4990126;28;20042;-85
2023/06/09 06:25:13;;;;;;;12.95;5.00;;;22.60;99.90;;;;;;4997660;28;20049;-86
2023/06/09 06:27:40;;;;;;;11.80;4.80;;;20.90;99.90;;;;;;4974821;28;20084;-86
2023/06/09 06:30:08;;;;;;;11.73;5.00;;;21.10;99.90;;;;;;4988366;28;20516;-86
2023/06/09 06:32:35;;;;;;;12.57;4.47;;;21.40;99.90;;;;;;4985102;28;20050;-86
2023/06/09 06:35:01;;;;;;;15.15;4.40;;;;;;;;;;4971364;28;20049;-86
2023/06/09 06:37:28;;;;;;;12.88;4.53;;;;;;;;;;5005809;28;20542;-86
2023/06/09 06:39:55;;;;;;;12.65;6.15;;;;;;;;;;4986655;28;20044;-86
2023/06/09 06:42:21;;;;;;;10.57;4.47;;;;;;;;;;4982945;28;20053;-86
2023/06/09 06:44:46;;;;;;;13.77;6.18;;;;;;;;;;4985302;28;20057;-85
2023/06/09 06:47:12;;;;;;;9.68;4.45;;;;;;;;;;4984340;28;20428;-86
2023/06/09 06:49:38;;;;;;;14.48;5.85;;;;;;;;;;4990189;28;20045;-85
2023/06/09 06:52:05;;;;;;;20.05;6.07;;;;;;;;;;4985829;28;20038;-86
2023/06/09 06:54:30;;;;;;;11.57;5.50;;;;;;;;;;4987346;28;20046;-86
2023/06/09 06:56:56;;;;;;;12.02;4.97;;;;;;;;;;4985000;28;20049;-85
2023/06/09 06:59:22;;;;;;;13.38;5.68;;;;;;;;;;4988573;28;20044;-86
2023/06/09 07:01:49;;;;;;;14.45;5.32;;;;;;;;;;4988018;28;20038;-86
2023/06/09 07:04:15;;;;;;;12.90;5.10;;;;;;;;;;4990216;28;20061;-86
2023/06/09 07:06:41;;;;;;;13.65;5.13;;;;;;;;;;4988482;28;20381;-85
2023/06/09 07:09:07;;;;;;;15.40;6.10;;;;;;;;;;4986253;28;20046;-85
2023/06/09 07:11:33;;;;;;;14.32;4.95;;;;;;;;;;4973697;28;20053;-86
2023/06/09 07:13:59;;;;;;;15.70;5.22;;;;;;;;;;4973878;28;20190;-84
2023/06/09 07:16:25;;;;;;;13.63;5.78;;;;;;;;;;4986151;28;20041;-86
2023/06/09 07:18:51;;;;;;;13.73;5.63;;;;;;;;;;4991141;28;20044;-86
2023/06/09 07:21:17;;;;;;;12.40;5.65;;;;;;;;;;4989655;28;20045;-86
2023/06/09 07:23:43;;;;;;;11.20;5.00;;;;;;;;;;4967230;28;20045;-86
2023/06/09 07:26:10;;;;;;;10.00;5.57;;;;;;;;;;4987942;28;20046;-85
2023/06/09 07:28:36;;;;;;;12.02;5.32;;;;;;;;;;4968180;28;20056;-85
2023/06/09 07:31:02;;;;;;;13.95;6.15;;;;;;;;;;4987266;28;20453;-86
2023/06/09 07:33:32;;;;;;;12.57;5.70;;;;;;;;;;4988248;28;20089;-86
2023/06/09 07:35:58;;;;;;;12.90;6.25;;;;;;;;;;4986834;28;20046;-86
2023/06/09 07:38:27;;;;;;;12.88;5.35;;;;;;;;;;4973582;28;20121;-86
2023/06/09 07:40:53;;;;;;;11.20;4.97;;;;;;;;;;4986382;28;20485;-85
2023/06/09 07:43:19;;;;;;;14.60;5.75;;;;;;;;;;4990490;28;20514;-86
2023/06/09 07:45:46;;;;;;;12.05;5.47;;;;;;;;;;4976952;28;20053;-85
2023/06/09 07:48:12;;;;;;;17.30;7.15;;;;;;;;;;4985793;28;20050;-87
2023/06/09 07:50:38;;;;;;;13.02;4.68;;;;;;;;;;4988786;28;20042;-87
2023/06/09 07:53:04;;;;;;;11.80;5.55;;;;;;;;;;4969081;28;20065;-87
2023/06/09 07:55:31;;;;;;;14.75;5.82;;;;;;;;;;4980263;28;20491;-87
2023/06/09 07:57:57;;;;;;;12.85;5.30;;;;;;;;;;4971834;28;20046;-88
2023/06/09 08:00:23;;;;;;;11.50;5.80;;;;;;;;;;4972464;28;20038;-89
2023/06/09 08:02:50;;;;;;;15.32;5.75;;;;;;;;;;4979308;28;20474;-88
2023/06/09 08:05:16;;;;;;;11.77;5.80;;;;;;;;;;4967412;28;20424;-88
2023/06/09 08:07:42;;;;;;;14.23;6.65;;;;;;;;;;4962284;28;20053;-88
2023/06/09 08:10:08;;;;;;;13.52;6.05;;;;;;;;;;4969780;28;20076;-87
2023/06/09 08:12:36;;;;;;;15.27;5.10;;;19.20;99.90;;;;;;4973131;28;20041;-89
2023/06/09 08:15:02;;;;;;;17.23;5.97;;;;;;;;;;4971804;28;20439;-89
2023/06/09 08:17:28;;;;;;;12.63;5.85;;;;;;;;;;4972696;28;20107;-88
2023/06/09 08:19:54;;;;;;;12.80;5.35;;;;;;;;;;4985938;28;20038;-90
2023/06/09 08:22:20;;;;;;;15.90;5.22;;;;;;;;;;4968368;28;20042;-90
2023/06/09 08:24:46;;;;;;;16.92;5.65;;;;;;;;;;4973210;28;20041;-90
2023/06/09 08:27:13;;;;;;;15.25;6.18;;;;;;;;;;4983727;28;20096;-89
2023/06/09 08:29:39;;;;;;;10.77;5.55;;;;;;;;;;4973995;28;20411;-89
2023/06/09 08:32:05;;;;;;;16.08;5.97;;;19.70;99.90;;;;;;4989527;28;20045;-88
2023/06/09 08:34:31;;;;;;;10.85;5.30;;;;;;;;;;4987745;28;20625;-89
2023/06/09 08:36:58;;;;;;;10.50;5.03;;;;;;;;;;4970420;28;20136;-89
2023/06/09 08:39:24;;;;;;;14.00;6.47;;;;;;;;;;4980214;28;20531;-89
2023/06/09 08:41:51;;;;;;;15.35;5.97;;;;;;;;;;4974060;28;20038;-89
2023/06/09 08:44:17;;;;;;;11.48;5.85;;;;;;;;;;4988307;28;20053;-89
2023/06/09 08:46:43;;;;;;;15.20;5.78;;;;;;;;;;4983322;28;20042;-90
2023/06/09 08:49:09;;;;;;;8.07;5.13;;;;;;;;;;4980722;28;20112;-89
2023/06/09 08:51:37;;;;;;;12.27;5.75;;;20.20;99.90;;;;;;4969408;28;20038;-89
2023/06/09 08:54:03;;;;;;;12.02;4.90;;;;;;;;;;4969192;28;20490;-89
2023/06/09 08:56:29;;;;;;;11.75;5.65;;;;;;;;;;4972265;28;20103;-89
2023/06/09 08:58:55;;;;;;;11.32;5.35;;;;;;;;;;4988169;28;20057;-89
2023/06/09 09:01:21;;;;;;;11.48;6.13;;;;;;;;;;4987046;28;20396;-89
2023/06/09 09:03:47;;;;;;;14.18;5.00;;;;;;;;;;4974171;28;20129;-89
2023/06/09 09:06:14;;;;;;;10.38;5.40;;;;;;;;;;4969174;28;20622;-88
2023/06/09 09:08:40;;;;;;;14.23;5.72;;;;;;;;;;4984777;28;20073;-88
2023/06/09 09:11:06;;;;;;;11.13;6.25;;;;;;;;;;4971227;28;20111;-88
2023/06/09 09:13:32;;;;;;;11.60;4.85;;;;;;;;;;4985236;28;20050;-87
2023/06/09 09:16:00;;;;;;;9.50;5.03;;;20.80;99.90;;;;;;4986407;28;20515;-88
2023/06/09 09:18:34;;;;;;;13.80;5.53;;;21.20;99.90;;;;;;4965617;28;20053;-87
2023/06/09 09:21:01;;;;;;;9.05;4.95;;;21.10;99.90;;;;;;4982125;28;20555;-87
2023/06/09 09:23:33;;;;;;;8.23;4.65;;;21.40;99.90;;;;;;4988254;28;20432;-88
2023/06/09 09:26:00;;;;;;;12.30;4.80;;;21.60;99.90;;;;;;4971585;28;20049;-88
2023/06/09 09:28:26;;;;;;;10.32;5.13;;;;;;;;;;4970878;28;20049;-89
2023/06/09 09:30:56;;;;;;;12.75;5.07;;;21.50;99.90;;;;;;4981613;28;20042;-89
2023/06/09 09:33:27;;;;;;;9.52;4.75;;;21.60;99.90;;;;;;4970730;28;20642;-87
2023/06/09 09:35:59;;;;;;;15.90;4.88;;;21.90;99.90;;;;;;4964899;28;20152;-87
2023/06/09 09:38:27;;;;;;;9.20;4.78;;;21.90;99.90;;;;;;4982541;28;20093;-88
2023/06/09 09:40:55;;;;;;;9.07;4.35;;;21.60;99.90;;;;;;4968169;28;20106;-87
2023/06/09 09:43:24;;;;;;;14.02;5.43;;;21.90;99.90;;;;;;4969271;28;20038;-87
2023/06/09 09:45:54;;;;;;;9.55;4.95;;;22.00;99.90;;;;;;4972889;28;20402;-87
2023/06/09 09:48:21;;;;;;;11.32;4.70;;;22.20;99.90;;;;;;4971542;28;20379;-85
2023/06/09 09:50:48;;;;;;;8.68;4.90;;;22.20;99.90;;;;;;4985034;28;20056;-86
2023/06/09 09:53:15;;;;;;;9.70;4.75;;;22.50;99.90;;;;;;4985420;28;20042;-85
2023/06/09 09:55:45;;;;;;;10.75;4.15;;;22.80;99.90;;;;;;4972119;28;20491;-86
2023/06/09 09:58:12;;;;;;;11.30;4.40;;;22.70;99.90;;;;;;4984825;28;20061;-85
2023/06/09 10:00:44;;;;;;;7.82;4.18;;;22.60;99.90;;;;;;4981730;28;20034;-86
2023/06/09 10:03:10;;;;;;;11.93;4.43;;;;;;;;;;4984309;28;20054;-86
2023/06/09 10:05:42;;;;;;;16.33;5.20;;;22.90;99.90;;;;;;4989116;28;20096;-86
2023/06/09 10:08:10;;;;;;;8.55;4.10;;;22.80;99.90;;;;;;4986933;28;20059;-86
2023/06/09 10:10:36;;;;;;;8.75;4.10;;;;;;;;;;4987242;28;20049;-88
2023/06/09 10:13:03;;;;;;;8.18;3.75;;;;;;;;;;4979299;28;20039;-86
2023/06/09 10:15:30;;;;;;;11.13;5.38;;;23.00;99.90;;;;;;4973529;28;20144;-85
2023/06/09 10:17:57;;;;;;;9.63;4.50;;;23.10;99.90;;;;;;4991356;28;20046;-86
2023/06/09 10:20:23;;;;;;;9.52;4.43;;;23.10;99.90;;;;;;4973837;28;20041;-85
2023/06/09 10:22:51;;;;;;;8.50;3.67;;;23.20;99.90;;;;;;4975767;28;20048;-85
2023/06/09 10:25:17;;;;;;;9.70;4.28;;;23.10;99.90;;;;;;4986771;28;20406;-86
2023/06/09 10:27:43;;;;;;;11.02;4.60;;;23.50;99.90;;;;;;4967424;28;20041;-85
2023/06/09 10:30:09;;;;;;;12.32;4.47;;;23.30;99.90;;;;;;4973249;28;20045;-88
2023/06/09 10:32:46;;;;;;;7.90;4.28;;;23.50;99.90;;;;;;4975796;28;20038;-86
2023/06/09 10:35:16;;;;;;;9.00;4.07;;;23.60;99.90;;;;;;4987893;28;20037;-86
2023/06/09 10:37:42;;;;;;;9.40;4.10;;;23.60;99.90;;;;;;4973236;28;20065;-86
2023/06/09 10:40:32;;;;;;;8.65;3.90;;;23.70;99.90;;;;;;4973400;28;20042;-86
2023/06/09 10:43:37;;;;;;;7.93;4.03;;;23.70;99.90;;;;;;4985322;28;20053;-86
2023/06/09 10:46:03;;;;;;;8.52;3.65;;;24.10;99.90;;;;;;4982129;28;20037;-86
2023/06/09 10:48:45;;;;;;;9.38;3.70;;;24.10;99.90;;;;;;4997625;28;20048;-87
2023/06/09 10:51:35;;;;;;;13.60;4.28;;;24.00;99.90;;;;;;4972785;28;20099;-87
2023/06/09 10:54:07;;;;;;;11.10;4.90;;;24.30;99.90;;;;;;5002030;28;20499;-86
2023/06/09 10:56:34;;;;;;;12.48;4.18;;;24.10;99.90;;;;;;4989416;28;20061;-87
2023/06/09 10:58:59;;;;;;;9.63;3.88;;;24.20;99.90;;;;;;4983164;28;20046;-87
2023/06/09 11:01:25;;;;;;;9.60;4.07;;;24.30;99.90;;;;;;4995275;28;20514;-87
2023/06/09 11:03:50;;;;;;;8.32;3.90;;;24.40;99.90;;;;;;4980489;28;20037;-87
2023/06/09 11:06:16;;;;;;;7.88;4.03;;;24.50;99.90;;;;;;4985862;28;20400;-86
2023/06/09 11:09:01;;;;;;;11.73;3.85;;;24.50;99.90;;;;;;4995632;28;20574;-86
2023/06/09 11:11:53;;;;;;;5.97;4.00;;;24.50;99.90;;;;;;4980349;28;20089;-87
2023/06/09 11:14:46;;;;;;;8.80;3.85;;;24.60;99.90;;;;;;4982456;28;20046;-88
2023/06/09 11:17:16;;;;;;;7.80;3.83;;;27.00;99.90;;;;;;5007962;28;20053;-87
2023/06/09 11:19:41;;;;;;;8.15;4.10;;;24.70;99.90;;;;;;4991530;28;20112;-88
2023/06/09 11:22:09;;;;;;;9.82;4.28;;;26.50;99.90;;;;;;4975338;28;20081;-88
2023/06/09 11:24:46;;;;;;;9.57;3.83;;;24.70;99.90;;;;;;5000308;28;20050;-87
2023/06/09 11:27:20;;;;;;;7.43;4.25;;;26.60;99.90;;;;;;4982425;28;20080;-87
2023/06/09 11:30:07;;;;;;;6.55;3.55;;;24.90;99.90;;;;;;4982659;28;20052;-87
2023/06/09 11:32:51;;;;;;;7.13;3.97;;;24.80;99.90;;;;;;4967885;28;20077;-86
2023/06/09 11:35:34;;;;;;;7.35;3.22;;;26.60;99.90;;;;;;4984839;28;20093;-86
2023/06/09 11:38:11;;;;;;;8.13;4.13;;;24.80;99.90;;;;;;4983117;28;20054;-87
2023/06/09 11:40:49;;;;;;;7.38;4.55;;;24.50;99.90;;;;;;4972046;28;20081;-87
2023/06/09 11:43:14;;;;;;;8.20;4.25;;;24.90;99.90;;;;;;4969351;28;20124;-87
2023/06/09 11:45:40;;;;;;;10.18;4.03;;;26.90;99.90;;;;;;4983627;28;20477;-88
2023/06/09 11:48:07;;;;;;;7.28;3.35;;;27.30;99.90;;;;;;4987417;28;20579;-88
2023/06/09 11:50:45;;;;;;;11.45;3.78;;;27.70;99.90;;;;;;4970280;28;20054;-88
2023/06/09 11:53:13;;;;;;;9.07;3.40;;;25.30;99.90;;;;;;4964455;28;20049;-88
2023/06/09 11:55:39;;;;;;;6.85;4.07;;;27.00;99.90;;;;;;4973807;28;20487;-88
2023/06/09 11:58:08;;;;;;;4.03;2.85;;;26.80;99.90;;;;;;4985329;28;20045;-88
2023/06/09 12:00:38;;;;;;;7.82;3.78;;;27.60;99.90;;;;;;4986661;28;20436;-89
2023/06/09 12:03:07;;;;;;;6.13;3.00;;;26.80;99.90;;;;;;4966697;28;20069;-89
2023/06/09 12:05:33;;;;;;;5.82;3.42;;;27.50;99.90;;;;;;4971536;28;20056;-90
2023/06/09 12:08:00;;;;;;;5.70;3.13;;;25.10;99.90;;;;;;4976738;28;20543;-88
2023/06/09 12:10:27;;;;;;;11.48;3.60;;;;;;;;;;4978449;28;20049;-89
2023/06/09 12:12:55;;;;;;;6.25;4.28;;;25.90;99.90;;;;;;4982161;28;20141;-89
2023/06/09 12:15:22;;;;;;;9.30;3.70;;;27.70;99.90;;;;;;4991458;28;20049;-89
2023/06/09 12:17:53;;;;;;;12.00;4.10;;;26.20;99.90;;;;;;4978466;28;20125;-89
2023/06/09 12:20:23;;;;;;;5.80;3.33;;;28.00;99.90;;;;;;4984103;28;20029;-89
2023/06/09 12:22:49;;;;;;;6.65;3.67;;;25.50;99.90;;;;;;4973087;28;20037;-88
2023/06/09 12:25:36;;;;;;;6.28;3.45;;;25.80;99.90;;;;;;4970593;28;20053;-88
2023/06/09 12:28:12;;;;;;;8.10;3.65;;;26.20;99.90;;;;;;4979030;28;20129;-89
2023/06/09 12:30:45;;;;;;;7.78;3.70;;;27.80;99.90;;;;;;4983657;28;20053;-88
2023/06/09 12:33:12;;;;;;;6.85;3.70;;;25.90;99.90;;;;;;4973466;28;20053;-89
2023/06/09 12:35:45;;;;;;;6.78;3.60;;;25.90;99.90;;;;;;4970967;28;20041;-89
2023/06/09 12:38:22;;;;;;;5.75;3.60;;;25.80;99.90;;;;;;4972393;28;20057;-89
2023/06/09 12:41:11;;;;;;;6.32;3.97;;;26.10;99.90;;;;;;4972246;28;20042;-89
2023/06/09 12:43:48;;;;;;;6.30;4.18;;;26.10;99.90;;;;;;4969926;28;20041;-89
2023/06/09 12:46:25;;;;;;;6.78;3.50;;;26.10;99.90;;;;;;4985123;28;20100;-88
2023/06/09 12:49:10;;;;;;;6.40;3.28;;;26.20;99.90;;;;;;4980855;28;20038;-90
2023/06/09 12:51:40;;;;;;;6.82;4.30;;;27.20;99.90;;;;;;4968492;28;20504;-88
2023/06/09 12:54:06;;;;;;;8.93;4.20;;;25.90;99.90;;;;;;4978285;28;20543;-88
2023/06/09 12:56:31;;;;;;;6.95;3.72;;;27.90;99.90;;;;;;4975014;28;20127;-89
2023/06/09 12:58:57;;;;;;;9.73;4.32;;;28.20;99.90;;;;;;4972691;28;20042;-89
2023/06/09 13:01:27;;;;;;;7.47;3.83;;;25.90;99.90;;;;;;4999929;28;20053;-89
2023/06/09 13:03:53;;;;;;;6.47;3.47;;;28.00;99.90;;;;;;4988386;28;20050;-88
2023/06/09 13:06:19;;;;;;;6.57;4.00;;;26.30;99.90;;;;;;4989374;28;20149;-89
2023/06/09 13:08:45;;;;;;;10.23;4.22;;;27.10;99.90;;;;;;4988869;28;20522;-89
2023/06/09 13:11:11;;;;;;;7.68;3.35;;;27.70;99.90;;;;;;4972454;28;20563;-89
2023/06/09 13:13:39;;;;;;;9.23;3.47;;;27.80;99.90;;;;;;4983804;28;20070;-89
2023/06/09 13:16:04;;;;;;;6.97;3.95;;;27.80;99.90;;;;;;4973050;28;20038;-85
2023/06/09 13:18:30;;;;;;;9.20;4.13;;;28.80;99.90;;;;;;4983530;28;20049;-86
2023/06/09 13:20:55;;;;;;;5.47;3.78;;;26.40;99.90;;;;;;4970044;28;20062;-86
2023/06/09 13:23:21;;;;;;;8.05;3.60;;;28.20;99.90;;;;;;4967780;28;20115;-86
2023/06/09 13:25:46;;;;;;;6.00;3.65;;;27.00;99.90;;;;;;4986051;28;20048;-86
2023/06/09 13:28:15;;;;;;;7.43;3.70;;;26.60;99.90;;;;;;4992022;28;20542;-86
2023/06/09 13:30:40;;;;;;;7.60;3.60;;;25.80;99.90;;;;;;4985254;28;20030;-86
2023/06/09 13:33:06;;;;;;;9.18;3.65;;;26.80;99.90;;;;;;4983215;28;20112;-86
2023/06/09 13:35:33;;;;;;;5.75;3.47;;;26.70;99.90;;;;;;4985842;28;20161;-86
2023/06/09 13:38:00;;;;;;;7.60;3.85;;;28.40;99.90;;;;;;4983920;28;20200;-87
2023/06/09 13:40:26;;;;;;;8.70;4.38;;;26.30;99.90;;;;;;4985851;28;20476;-86
2023/06/09 13:42:52;;;;;;;6.32;4.20;;;26.40;99.90;;;;;;4967548;28;20044;-87
2023/06/09 13:45:23;;;;;;;6.35;3.65;;;29.10;99.90;;;;;;4976301;28;20050;-86
2023/06/09 13:47:48;;;;;;;6.03;3.30;;;26.40;99.90;;;;;;4968268;28;20042;-86
2023/06/09 13:50:14;;;;;;;6.25;3.88;;;28.60;99.90;;;;;;4974608;28;20041;-87
2023/06/09 13:52:42;;;;;;;9.57;4.18;;;28.20;99.90;;;;;;4975996;28;20474;-86
2023/06/09 13:55:08;;;;;;;8.95;3.97;;;26.60;99.90;;;;;;4974338;28;20046;-86